Terminal Aerodrome Forecast
Issued by NWS

Home | Current Version | Previous Version | Text Only | Print | Product List | Glossary On
Versions: 1 2 3 4 5 6 7 8 9 10 11 12 13 14 15 16 17 18 19 20 21 22
060
FTUS41 KGYX 210907 AAA
TAFHIE
TAF AMD
KHIE 210907Z 2109/2206 VRB03KT P6SM SCT045 WS020/25035KT
     FM211400 25005KT P6SM BKN040 WS015/25040KT
     FM212000 29006KT P6SM BKN035
      TEMPO 2120/2124 5SM -SHRA BR BKN025=

USA.gov is the U.S. government's official web portal to all federal, state and local government web resources and services.